sensor_id;sensor_type;location;lat;lon;timestamp;pressure;altitude;pressure_sealevel;temperature;humidity
9421;BME280;4749;51.398;5.466;2023-12-22T00:00:00;100168.38;;;7.21;100.00
9421;BME280;4749;51.398;5.466;2023-12-22T00:02:27;100171.00;;;7.15;100.00
9421;BME280;4749;51.398;5.466;2023-12-22T00:04:55;100175.31;;;7.09;100.00
9421;BME280;4749;51.398;5.466;2023-12-22T00:07:23;100180.50;;;7.05;100.00
9421;BME280;4749;51.398;5.466;2023-12-22T00:09:50;100176.13;;;7.04;100.00
9421;BME280;4749;51.398;5.466;2023-12-22T00:12:17;100181.41;;;7.08;100.00
9421;BME280;4749;51.398;5.466;2023-12-22T00:14:44;100186.63;;;7.12;100.00
9421;BME280;4749;51.398;5.466;2023-12-22T00:17:11;100171.00;;;7.18;100.00
9421;BME280;4749;51.398;5.466;2023-12-22T00:19:38;100166.69;;;7.26;100.00
9421;BME280;4749;51.398;5.466;2023-12-22T00:22:05;100178.06;;;7.31;100.00
9421;BME280;4749;51.398;5.466;2023-12-22T00:24:33;100175.44;;;7.34;100.00
9421;BME280;4749;51.398;5.466;2023-12-22T00:27:00;100174.56;;;7.39;100.00
9421;BME280;4749;51.398;5.466;2023-12-22T00:29:27;100183.34;;;7.41;100.00
9421;BME280;4749;51.398;5.466;2023-12-22T00:31:55;100180.72;;;7.45;100.00
9421;BME280;4749;51.398;5.466;2023-12-22T00:34:23;100179.84;;;7.48;100.00
9421;BME280;4749;51.398;5.466;2023-12-22T00:36:50;100197.31;;;7.52;100.00
9421;BME280;4749;51.398;5.466;2023-12-22T00:39:17;100208.69;;;7.57;100.00
9421;BME280;4749;51.398;5.466;2023-12-22T00:41:44;100210.44;;;7.59;100.00
9421;BME280;4749;51.398;5.466;2023-12-22T00:44:12;100209.56;;;7.60;100.00
9421;BME280;4749;51.398;5.466;2023-12-22T00:46:39;100213.94;;;7.60;100.00
9421;BME280;4749;51.398;5.466;2023-12-22T00:49:06;100210.44;;;7.61;100.00
9421;BME280;4749;51.398;5.466;2023-12-22T00:51:34;100212.19;;;7.60;100.00
9421;BME280;4749;51.398;5.466;2023-12-22T00:54:01;100203.47;;;7.60;100.00
9421;BME280;4749;51.398;5.466;2023-12-22T00:56:28;100204.34;;;7.60;100.00
9421;BME280;4749;51.398;5.466;2023-12-22T00:58:55;100209.56;;;7.63;100.00
9421;BME280;4749;51.398;5.466;2023-12-22T01:01:34;100222.66;;;7.62;100.00
9421;BME280;4749;51.398;5.466;2023-12-22T01:04:02;100218.31;;;7.66;100.00
9421;BME280;4749;51.398;5.466;2023-12-22T01:06:29;100220.94;;;7.66;100.00
9421;BME280;4749;51.398;5.466;2023-12-22T01:08:58;100224.44;;;7.66;100.00
9421;BME280;4749;51.398;5.466;2023-12-22T01:11:25;100234.03;;;7.69;100.00
9421;BME280;4749;51.398;5.466;2023-12-22T01:13:52;100266.31;;;7.71;100.00
9421;BME280;4749;51.398;5.466;2023-12-22T01:16:19;100197.41;;;7.73;100.00
9421;BME280;4749;51.398;5.466;2023-12-22T01:18:49;100229.66;;;7.69;100.00
9421;BME280;4749;51.398;5.466;2023-12-22T01:21:18;100217.41;;;7.60;100.00
9421;BME280;4749;51.398;5.466;2023-12-22T01:23:45;100213.91;;;7.54;100.00
9421;BME280;4749;51.398;5.466;2023-12-22T01:26:12;100212.16;;;7.48;100.00
9421;BME280;4749;51.398;5.466;2023-12-22T01:28:39;100230.41;;;7.44;100.00
9421;BME280;4749;51.398;5.466;2023-12-22T01:31:06;100226.88;;;7.39;100.00
9421;BME280;4749;51.398;5.466;2023-12-22T01:33:33;100243.44;;;7.36;100.00
9421;BME280;4749;51.398;5.466;2023-12-22T01:36:00;100245.19;;;7.32;100.00
9421;BME280;4749;51.398;5.466;2023-12-22T01:38:27;100242.50;;;7.29;100.00
9421;BME280;4749;51.398;5.466;2023-12-22T01:40:54;100252.09;;;7.26;100.00
9421;BME280;4749;51.398;5.466;2023-12-22T01:43:22;100254.69;;;7.24;100.00
9421;BME280;4749;51.398;5.466;2023-12-22T01:45:55;100248.63;;;7.28;100.00
9421;BME280;4749;51.398;5.466;2023-12-22T01:48:24;100237.31;;;7.32;100.00
9421;BME280;4749;51.398;5.466;2023-12-22T01:50:53;100245.19;;;7.37;100.00
9421;BME280;4749;51.398;5.466;2023-12-22T01:53:24;100258.31;;;7.40;100.00
9421;BME280;4749;51.398;5.466;2023-12-22T01:55:55;100263.53;;;7.42;100.00
9421;BME280;4749;51.398;5.466;2023-12-22T01:58:23;100257.44;;;7.44;100.00
9421;BME280;4749;51.398;5.466;2023-12-22T02:00:53;100258.31;;;7.48;100.00
9421;BME280;4749;51.398;5.466;2023-12-22T02:03:21;100274.06;;;7.52;100.00
9421;BME280;4749;51.398;5.466;2023-12-22T02:05:49;100284.56;;;7.57;100.00
9421;BME280;4749;51.398;5.466;2023-12-22T02:08:18;100281.94;;;7.61;100.00
9421;BME280;4749;51.398;5.466;2023-12-22T02:10:46;100279.34;;;7.65;100.00
9421;BME280;4749;51.398;5.466;2023-12-22T02:13:13;100272.41;;;7.67;100.00
9421;BME280;4749;51.398;5.466;2023-12-22T02:15:40;100265.41;;;7.66;100.00
9421;BME280;4749;51.398;5.466;2023-12-22T02:18:16;100251.44;;;7.63;100.00
9421;BME280;4749;51.398;5.466;2023-12-22T02:20:46;100243.59;;;7.63;100.00
9421;BME280;4749;51.398;5.466;2023-12-22T02:23:13;100230.50;;;7.63;100.00
9421;BME280;4749;51.398;5.466;2023-12-22T02:25:40;100237.47;;;7.63;100.00
9421;BME280;4749;51.398;5.466;2023-12-22T02:28:15;100247.06;;;7.62;100.00
9421;BME280;4749;51.398;5.466;2023-12-22T02:33:17;100247.97;;;7.68;100.00
9421;BME280;4749;51.398;5.466;2023-12-22T02:35:47;100256.72;;;7.73;100.00
9421;BME280;4749;51.398;5.466;2023-12-22T02:38:16;100268.09;;;7.76;100.00
9421;BME280;4749;51.398;5.466;2023-12-22T02:40:44;100289.91;;;7.81;100.00
9421;BME280;4749;51.398;5.466;2023-12-22T02:43:11;100309.13;;;7.83;100.00
9421;BME280;4749;51.398;5.466;2023-12-22T02:45:39;100323.91;;;7.80;100.00
9421;BME280;4749;51.398;5.466;2023-12-22T02:48:06;100317.72;;;7.62;100.00
9421;BME280;4749;51.398;5.466;2023-12-22T02:50:34;100307.06;;;7.38;100.00
9421;BME280;4749;51.398;5.466;2023-12-22T02:53:02;100299.09;;;7.15;100.00
9421;BME280;4749;51.398;5.466;2023-12-22T02:55:29;100301.56;;;7.00;100.00
9421;BME280;4749;51.398;5.466;2023-12-22T02:57:56;100305.81;;;6.89;100.00
9421;BME280;4749;51.398;5.466;2023-12-22T03:00:23;100290.09;;;6.83;100.00
9421;BME280;4749;51.398;5.466;2023-12-22T03:02:50;100299.63;;;6.79;100.00
9421;BME280;4749;51.398;5.466;2023-12-22T03:05:17;100281.31;;;6.73;100.00
9421;BME280;4749;51.398;5.466;2023-12-22T03:07:45;100274.28;;;6.69;100.00
9421;BME280;4749;51.398;5.466;2023-12-22T03:10:12;100266.44;;;6.66;100.00
9421;BME280;4749;51.398;5.466;2023-12-22T03:13:01;100261.22;;;6.67;100.00
9421;BME280;4749;51.398;5.466;2023-12-22T03:15:28;100249.88;;;6.67;100.00
9421;BME280;4749;51.398;5.466;2023-12-22T03:17:55;100255.13;;;6.68;100.00
9421;BME280;4749;51.398;5.466;2023-12-22T03:20:22;100247.28;;;6.71;100.00
9421;BME280;4749;51.398;5.466;2023-12-22T03:22:49;100254.31;;;6.74;100.00
9421;BME280;4749;51.398;5.466;2023-12-22T03:25:16;100250.81;;;6.73;100.00
9421;BME280;4749;51.398;5.466;2023-12-22T03:27:43;100248.16;;;6.72;100.00
9421;BME280;4749;51.398;5.466;2023-12-22T03:30:11;100237.72;;;6.72;100.00
9421;BME280;4749;51.398;5.466;2023-12-22T03:32:38;100241.25;;;6.74;100.00
9421;BME280;4749;51.398;5.466;2023-12-22T03:35:05;100241.28;;;6.78;100.00
9421;BME280;4749;51.398;5.466;2023-12-22T03:37:33;100238.72;;;6.86;100.00
9421;BME280;4749;51.398;5.466;2023-12-22T03:40:00;100227.47;;;6.92;100.00
9421;BME280;4749;51.398;5.466;2023-12-22T03:42:27;100238.84;;;7.00;100.00
9421;BME280;4749;51.398;5.466;2023-12-22T03:44:55;100238.00;;;7.05;100.00
9421;BME280;4749;51.398;5.466;2023-12-22T03:47:22;100235.44;;;7.13;100.00
9421;BME280;4749;51.398;5.466;2023-12-22T03:49:49;100234.63;;;7.20;100.00
9421;BME280;4749;51.398;5.466;2023-12-22T03:52:16;100237.28;;;7.29;100.00
9421;BME280;4749;51.398;5.466;2023-12-22T03:54:44;100261.75;;;7.38;100.00
9421;BME280;4749;51.398;5.466;2023-12-22T03:57:11;100259.19;;;7.45;100.00
9421;BME280;4749;51.398;5.466;2023-12-22T03:59:38;100255.75;;;7.49;100.00
9421;BME280;4749;51.398;5.466;2023-12-22T04:02:05;100245.28;;;7.55;100.00
9421;BME280;4749;51.398;5.466;2023-12-22T04:04:32;100250.56;;;7.60;100.00
9421;BME280;4749;51.398;5.466;2023-12-22T04:06:59;100247.09;;;7.67;100.00
9421;BME280;4749;51.398;5.466;2023-12-22T04:09:26;100250.59;;;7.69;100.00
9421;BME280;4749;51.398;5.466;2023-12-22T04:11:53;100271.53;;;7.72;100.00
9421;BME280;4749;51.398;5.466;2023-12-22T04:14:20;100264.59;;;7.76;100.00
9421;BME280;4749;51.398;5.466;2023-12-22T04:16:48;100266.34;;;7.80;100.00
9421;BME280;4749;51.398;5.466;2023-12-22T04:19:15;100262.00;;;7.82;100.00
9421;BME280;4749;51.398;5.466;2023-12-22T04:21:42;100269.88;;;7.85;100.00
9421;BME280;4749;51.398;5.466;2023-12-22T04:24:09;100270.75;;;7.88;100.00
9421;BME280;4749;51.398;5.466;2023-12-22T04:26:37;100268.16;;;7.93;100.00
9421;BME280;4749;51.398;5.466;2023-12-22T04:29:05;100276.00;;;7.96;100.00
9421;BME280;4749;51.398;5.466;2023-12-22T04:31:32;100273.44;;;7.99;100.00
9421;BME280;4749;51.398;5.466;2023-12-22T04:33:59;100293.50;;;8.00;100.00
9421;BME280;4749;51.398;5.466;2023-12-22T04:36:26;100283.91;;;7.99;100.00
9421;BME280;4749;51.398;5.466;2023-12-22T04:38:53;100280.41;;;8.02;100.00
9421;BME280;4749;51.398;5.466;2023-12-22T04:41:20;100284.78;;;8.06;100.00
9421;BME280;4749;51.398;5.466;2023-12-22T04:43:47;100285.69;;;8.09;100.00
9421;BME280;4749;51.398;5.466;2023-12-22T04:46:15;100290.91;;;8.11;100.00
9421;BME280;4749;51.398;5.466;2023-12-22T04:48:42;100283.94;;;8.10;100.00
9421;BME280;4749;51.398;5.466;2023-12-22T04:51:09;100290.03;;;8.10;100.00
9421;BME280;4749;51.398;5.466;2023-12-22T04:53:36;100291.78;;;8.11;100.00
9421;BME280;4749;51.398;5.466;2023-12-22T04:56:03;100302.25;;;8.13;100.00
9421;BME280;4749;51.398;5.466;2023-12-22T04:58:31;100298.78;;;8.14;100.00
9421;BME280;4749;51.398;5.466;2023-12-22T05:00:58;100292.66;;;8.13;100.00
9421;BME280;4749;51.398;5.466;2023-12-22T05:03:26;100296.16;;;8.14;100.00
9421;BME280;4749;51.398;5.466;2023-12-22T05:05:53;100310.13;;;8.14;100.00
9421;BME280;4749;51.398;5.466;2023-12-22T05:08:20;100309.25;;;8.14;100.00
9421;BME280;4749;51.398;5.466;2023-12-22T05:10:48;100301.38;;;8.15;100.00
9421;BME280;4749;51.398;5.466;2023-12-22T05:13:15;100304.91;;;8.19;100.00
9421;BME280;4749;51.398;5.466;2023-12-22T05:15:42;100311.91;;;8.22;100.00
9421;BME280;4749;51.398;5.466;2023-12-22T05:18:09;100318.00;;;8.24;100.00
9421;BME280;4749;51.398;5.466;2023-12-22T05:20:37;100312.81;;;8.25;100.00
9421;BME280;4749;51.398;5.466;2023-12-22T05:23:04;100307.56;;;8.28;100.00
9421;BME280;4749;51.398;5.466;2023-12-22T05:25:31;100295.34;;;8.27;100.00
9421;BME280;4749;51.398;5.466;2023-12-22T05:27:59;100304.06;;;8.32;100.00
9421;BME280;4749;51.398;5.466;2023-12-22T05:30:31;100287.50;;;8.33;100.00
9421;BME280;4749;51.398;5.466;2023-12-22T05:32:58;100345.16;;;8.38;100.00
9421;BME280;4749;51.398;5.466;2023-12-22T05:35:25;100315.47;;;8.40;100.00
9421;BME280;4749;51.398;5.466;2023-12-22T05:37:53;100310.25;;;8.36;100.00
9421;BME280;4749;51.398;5.466;2023-12-22T05:40:20;100320.63;;;8.22;100.00
9421;BME280;4749;51.398;5.466;2023-12-22T05:42:47;100311.88;;;8.12;100.00
9421;BME280;4749;51.398;5.466;2023-12-22T05:45:15;100304.84;;;8.05;100.00
9421;BME280;4749;51.398;5.466;2023-12-22T05:47:42;100310.94;;;8.01;100.00
9421;BME280;4749;51.398;5.466;2023-12-22T05:50:09;100328.41;;;8.01;100.00
9421;BME280;4749;51.398;5.466;2023-12-22T05:52:38;100315.31;;;7.99;100.00
9421;BME280;4749;51.398;5.466;2023-12-22T05:55:06;100304.84;;;7.99;100.00
9421;BME280;4749;51.398;5.466;2023-12-22T05:57:33;100315.31;;;7.99;100.00
9421;BME280;4749;51.398;5.466;2023-12-22T06:00:00;100318.81;;;8.00;100.00
9421;BME280;4749;51.398;5.466;2023-12-22T06:02:27;100319.69;;;8.02;100.00
9421;BME280;4749;51.398;5.466;2023-12-22T06:04:54;100312.69;;;8.04;100.00
9421;BME280;4749;51.398;5.466;2023-12-22T06:07:22;100309.22;;;8.06;100.00
9421;BME280;4749;51.398;5.466;2023-12-22T06:09:49;100304.00;;;8.09;100.00
9421;BME280;4749;51.398;5.466;2023-12-22T06:12:16;100304.00;;;8.11;100.00
9421;BME280;4749;51.398;5.466;2023-12-22T06:14:43;100298.78;;;8.14;100.00
9421;BME280;4749;51.398;5.466;2023-12-22T06:17:10;100303.16;;;8.16;100.00
9421;BME280;4749;51.398;5.466;2023-12-22T06:19:37;100304.03;;;8.20;100.00
9421;BME280;4749;51.398;5.466;2023-12-22T06:22:05;100303.16;;;8.21;100.00
9421;BME280;4749;51.398;5.466;2023-12-22T06:24:35;100310.16;;;8.24;100.00
9421;BME280;4749;51.398;5.466;2023-12-22T06:27:03;100293.59;;;8.28;100.00
9421;BME280;4749;51.398;5.466;2023-12-22T06:29:30;100299.69;;;8.30;100.00
9421;BME280;4749;51.398;5.466;2023-12-22T06:31:58;100293.59;;;8.31;100.00
9421;BME280;4749;51.398;5.466;2023-12-22T06:34:25;100294.50;;;8.33;100.00
9421;BME280;4749;51.398;5.466;2023-12-22T06:36:53;100301.50;;;8.35;100.00
9421;BME280;4749;51.398;5.466;2023-12-22T06:39:20;100308.50;;;8.36;100.00
9421;BME280;4749;51.398;5.466;2023-12-22T06:41:47;100305.88;;;8.38;100.00
9421;BME280;4749;51.398;5.466;2023-12-22T06:44:14;100304.13;;;8.38;100.00
9421;BME280;4749;51.398;5.466;2023-12-22T06:46:42;100325.09;;;8.38;100.00
9421;BME280;4749;51.398;5.466;2023-12-22T06:49:09;100317.22;;;8.38;100.00
9421;BME280;4749;51.398;5.466;2023-12-22T06:51:36;100329.44;;;8.39;100.00
9421;BME280;4749;51.398;5.466;2023-12-22T06:54:04;100328.56;;;8.39;100.00
9421;BME280;4749;51.398;5.466;2023-12-22T06:56:36;100330.34;;;8.41;100.00
9421;BME280;4749;51.398;5.466;2023-12-22T06:59:03;100324.25;;;8.42;100.00
9421;BME280;4749;51.398;5.466;2023-12-22T07:01:35;100324.25;;;8.45;100.00
9421;BME280;4749;51.398;5.466;2023-12-22T07:04:04;100320.75;;;8.48;100.00
9421;BME280;4749;51.398;5.466;2023-12-22T07:06:33;100315.53;;;8.50;100.00
9421;BME280;4749;51.398;5.466;2023-12-22T07:11:49;100312.03;;;8.54;100.00
9421;BME280;4749;51.398;5.466;2023-12-22T07:14:17;100323.38;;;8.56;100.00
9421;BME280;4749;51.398;5.466;2023-12-22T07:16:44;100321.66;;;8.58;100.00
9421;BME280;4749;51.398;5.466;2023-12-22T07:19:12;100319.03;;;8.59;100.00
9421;BME280;4749;51.398;5.466;2023-12-22T07:21:42;100316.44;;;8.61;100.00
9421;BME280;4749;51.398;5.466;2023-12-22T07:24:13;100330.41;;;8.64;100.00
9421;BME280;4749;51.398;5.466;2023-12-22T07:26:42;100316.41;;;8.65;100.00
9421;BME280;4749;51.398;5.466;2023-12-22T07:29:11;100313.81;;;8.68;100.00
9421;BME280;4749;51.398;5.466;2023-12-22T07:31:40;100312.06;;;8.70;100.00
9421;BME280;4749;51.398;5.466;2023-12-22T07:34:07;100300.72;;;8.71;100.00
9421;BME280;4749;51.398;5.466;2023-12-22T07:36:36;100301.59;;;8.73;100.00
9421;BME280;4749;51.398;5.466;2023-12-22T07:39:13;100309.47;;;8.75;100.00
9421;BME280;4749;51.398;5.466;2023-12-22T07:41:43;100308.59;;;8.78;100.00
9421;BME280;4749;51.398;5.466;2023-12-22T07:44:10;100308.59;;;8.79;100.00
9421;BME280;4749;51.398;5.466;2023-12-22T07:46:38;100311.22;;;8.81;100.00
9421;BME280;4749;51.398;5.466;2023-12-22T07:49:05;100303.34;;;8.81;100.00
9421;BME280;4749;51.398;5.466;2023-12-22T07:51:33;100293.72;;;8.83;100.00
9421;BME280;4749;51.398;5.466;2023-12-22T07:54:00;100299.88;;;8.86;100.00
9421;BME280;4749;51.398;5.466;2023-12-22T07:56:27;100298.13;;;8.88;100.00
9421;BME280;4749;51.398;5.466;2023-12-22T07:58:54;100305.09;;;8.89;100.00
9421;BME280;4749;51.398;5.466;2023-12-22T08:01:34;100290.25;;;8.94;100.00
9421;BME280;4749;51.398;5.466;2023-12-22T08:04:02;100276.28;;;8.95;100.00
9421;BME280;4749;51.398;5.466;2023-12-22T08:06:29;100296.38;;;8.99;100.00
9421;BME280;4749;51.398;5.466;2023-12-22T08:08:56;100301.63;;;9.01;100.00
9421;BME280;4749;51.398;5.466;2023-12-22T08:11:23;100301.63;;;9.01;100.00
9421;BME280;4749;51.398;5.466;2023-12-22T08:13:52;100315.63;;;9.03;100.00
9421;BME280;4749;51.398;5.466;2023-12-22T08:16:20;100310.38;;;9.05;100.00
9421;BME280;4749;51.398;5.466;2023-12-22T08:18:47;100305.09;;;9.08;100.00
9421;BME280;4749;51.398;5.466;2023-12-22T08:21:15;100308.63;;;9.11;100.00
9421;BME280;4749;51.398;5.466;2023-12-22T08:23:59;100312.97;;;9.14;100.00
9421;BME280;4749;51.398;5.466;2023-12-22T08:26:26;100317.38;;;9.19;100.00
9421;BME280;4749;51.398;5.466;2023-12-22T08:28:54;100312.09;;;9.24;100.00
9421;BME280;4749;51.398;5.466;2023-12-22T08:31:21;100302.50;;;9.27;100.00
9421;BME280;4749;51.398;5.466;2023-12-22T08:33:48;100313.00;;;9.27;100.00
9421;BME280;4749;51.398;5.466;2023-12-22T08:36:15;100295.50;;;9.29;100.00
9421;BME280;4749;51.398;5.466;2023-12-22T08:38:43;100292.00;;;9.30;100.00
9421;BME280;4749;51.398;5.466;2023-12-22T08:41:11;100289.38;;;9.34;100.00
9421;BME280;4749;51.398;5.466;2023-12-22T08:43:38;100274.50;;;9.36;100.00
9421;BME280;4749;51.398;5.466;2023-12-22T08:46:06;100296.38;;;9.38;100.00
9421;BME280;4749;51.398;5.466;2023-12-22T08:48:34;100284.09;;;9.40;100.00
9421;BME280;4749;51.398;5.466;2023-12-22T08:51:03;100296.34;;;9.41;100.00
9421;BME280;4749;51.398;5.466;2023-12-22T08:53:33;100284.09;;;9.40;100.00
9421;BME280;4749;51.398;5.466;2023-12-22T08:56:03;100291.13;;;9.42;100.00
9421;BME280;4749;51.398;5.466;2023-12-22T08:58:30;100300.72;;;9.40;100.00
9421;BME280;4749;51.398;5.466;2023-12-22T09:00:58;100275.38;;;9.36;100.00
9421;BME280;4749;51.398;5.466;2023-12-22T09:03:25;100285.88;;;9.35;100.00
9421;BME280;4749;51.398;5.466;2023-12-22T09:05:53;100292.00;;;9.35;100.00
9421;BME280;4749;51.398;5.466;2023-12-22T09:08:21;100292.00;;;9.35;100.00
9421;BME280;4749;51.398;5.466;2023-12-22T09:10:48;100286.75;;;9.38;100.00
9421;BME280;4749;51.398;5.466;2023-12-22T09:13:16;100290.25;;;9.42;100.00
9421;BME280;4749;51.398;5.466;2023-12-22T09:15:43;100286.75;;;9.44;100.00
9421;BME280;4749;51.398;5.466;2023-12-22T09:18:13;100294.59;;;9.52;100.00
9421;BME280;4749;51.398;5.466;2023-12-22T09:20:41;100298.09;;;9.58;100.00
9421;BME280;4749;51.398;5.466;2023-12-22T09:23:08;100289.34;;;9.61;100.00
9421;BME280;4749;51.398;5.466;2023-12-22T09:25:37;100279.72;;;9.62;100.00
9421;BME280;4749;51.398;5.466;2023-12-22T09:28:04;100290.19;;;9.69;100.00
9421;BME280;4749;51.398;5.466;2023-12-22T09:30:32;100287.53;;;9.77;100.00
9421;BME280;4749;51.398;5.466;2023-12-22T09:32:59;100283.13;;;9.86;100.00
9421;BME280;4749;51.398;5.466;2023-12-22T09:35:26;100273.47;;;9.96;100.00
9421;BME280;4749;51.398;5.466;2023-12-22T09:37:54;100273.44;;;10.05;100.00
9421;BME280;4749;51.398;5.466;2023-12-22T09:40:21;100264.66;;;10.12;100.00
9421;BME280;4749;51.398;5.466;2023-12-22T09:42:49;100275.13;;;10.17;100.00
9421;BME280;4749;51.398;5.466;2023-12-22T09:45:19;100283.00;;;10.22;100.00
9421;BME280;4749;51.398;5.466;2023-12-22T09:47:51;100276.88;;;10.26;100.00
9421;BME280;4749;51.398;5.466;2023-12-22T09:50:20;100281.22;;;10.31;100.00
9421;BME280;4749;51.398;5.466;2023-12-22T09:52:48;100271.59;;;10.30;100.00
9421;BME280;4749;51.398;5.466;2023-12-22T09:55:15;100283.88;;;10.25;100.00
9421;BME280;4749;51.398;5.466;2023-12-22T09:57:45;100269.00;;;10.27;100.00
9421;BME280;4749;51.398;5.466;2023-12-22T10:00:15;100268.09;;;10.28;100.00
9421;BME280;4749;51.398;5.466;2023-12-22T10:02:42;100264.56;;;10.35;100.00
9421;BME280;4749;51.398;5.466;2023-12-22T10:05:12;100261.84;;;10.48;100.00
9421;BME280;4749;51.398;5.466;2023-12-22T10:07:46;100260.03;;;10.60;100.00
9421;BME280;4749;51.398;5.466;2023-12-22T10:10:16;100254.69;;;10.73;100.00
9421;BME280;4749;51.398;5.466;2023-12-22T10:12:45;100256.34;;;10.86;100.00
9421;BME280;4749;51.398;5.466;2023-12-22T10:15:13;100246.63;;;10.94;100.00
9421;BME280;4749;51.398;5.466;2023-12-22T10:17:41;100258.84;;;10.99;100.00
9421;BME280;4749;51.398;5.466;2023-12-22T10:20:09;100245.69;;;11.04;100.00
9421;BME280;4749;51.398;5.466;2023-12-22T10:22:36;100240.41;;;11.01;100.00
9421;BME280;4749;51.398;5.466;2023-12-22T10:25:04;100236.94;;;11.02;100.00
9421;BME280;4749;51.398;5.466;2023-12-22T10:27:36;100229.03;;;11.00;100.00
9421;BME280;4749;51.398;5.466;2023-12-22T10:30:04;100248.25;;;11.07;100.00
9421;BME280;4749;51.398;5.466;2023-12-22T10:32:31;100252.66;;;11.05;100.00
9421;BME280;4749;51.398;5.466;2023-12-22T10:34:59;100244.81;;;11.00;100.00
9421;BME280;4749;51.398;5.466;2023-12-22T10:37:26;100236.94;;;10.97;100.00
9421;BME280;4749;51.398;5.466;2023-12-22T10:39:54;100239.59;;;10.97;100.00
9421;BME280;4749;51.398;5.466;2023-12-22T10:42:22;100253.63;;;10.96;100.00
9421;BME280;4749;51.398;5.466;2023-12-22T10:44:49;100262.38;;;10.97;100.00
9421;BME280;4749;51.398;5.466;2023-12-22T10:47:19;100268.53;;;10.93;100.00
9421;BME280;4749;51.398;5.466;2023-12-22T10:49:48;100272.06;;;10.93;100.00
9421;BME280;4749;51.398;5.466;2023-12-22T10:52:18;100270.31;;;10.94;100.00
9421;BME280;4749;51.398;5.466;2023-12-22T10:54:45;100272.06;;;10.92;100.00
9421;BME280;4749;51.398;5.466;2023-12-22T10:57:13;100263.38;;;10.85;100.00
9421;BME280;4749;51.398;5.466;2023-12-22T10:59:47;100259.84;;;10.86;100.00
9421;BME280;4749;51.398;5.466;2023-12-22T11:02:27;100259.88;;;10.85;100.00
9421;BME280;4749;51.398;5.466;2023-12-22T11:05:05;100253.72;;;10.86;100.00
9421;BME280;4749;51.398;5.466;2023-12-22T11:07:35;100258.97;;;10.87;100.00
9421;BME280;4749;51.398;5.466;2023-12-22T11:10:07;100260.59;;;11.00;100.00
9421;BME280;4749;51.398;5.466;2023-12-22T11:12:38;100253.53;;;11.06;100.00
9421;BME280;4749;51.398;5.466;2023-12-22T11:15:06;100263.16;;;11.11;100.00
9421;BME280;4749;51.398;5.466;2023-12-22T11:17:35;100239.47;;;11.11;100.00
9421;BME280;4749;51.398;5.466;2023-12-22T11:20:09;100253.50;;;11.12;100.00
9421;BME280;4749;51.398;5.466;2023-12-22T11:22:37;100246.44;;;11.15;100.00
9421;BME280;4749;51.398;5.466;2023-12-22T11:25:07;100241.13;;;11.21;100.00
9421;BME280;4749;51.398;5.466;2023-12-22T11:27:37;100246.31;;;11.29;100.00
9421;BME280;4749;51.398;5.466;2023-12-22T11:30:06;100246.28;;;11.35;100.00
9421;BME280;4749;51.398;5.466;2023-12-22T11:32:36;100245.31;;;11.41;100.00
9421;BME280;4749;51.398;5.466;2023-12-22T11:35:04;100239.97;;;11.48;100.00
9421;BME280;4749;51.398;5.466;2023-12-22T11:37:33;100221.50;;;11.51;100.00
9421;BME280;4749;51.398;5.466;2023-12-22T11:40:03;100229.41;;;11.53;100.00
9421;BME280;4749;51.398;5.466;2023-12-22T11:42:40;100230.28;;;11.53;100.00
9421;BME280;4749;51.398;5.466;2023-12-22T11:45:13;100217.13;;;11.52;100.00
9421;BME280;4749;51.398;5.466;2023-12-22T11:47:43;100229.50;;;11.42;100.00
9421;BME280;4749;51.398;5.466;2023-12-22T11:50:12;100227.75;;;11.44;100.00
9421;BME280;4749;51.398;5.466;2023-12-22T11:52:39;100228.53;;;11.51;100.00
9421;BME280;4749;51.398;5.466;2023-12-22T11:55:07;100216.19;;;11.57;100.00
9421;BME280;4749;51.398;5.466;2023-12-22T11:57:38;100222.28;;;11.63;100.00
9421;BME280;4749;51.398;5.466;2023-12-22T12:02:55;100214.44;;;11.56;100.00
9421;BME280;4749;51.398;5.466;2023-12-22T12:05:23;100217.84;;;11.65;100.00
9421;BME280;4749;51.398;5.466;2023-12-22T12:07:50;100226.63;;;11.65;100.00
9421;BME280;4749;51.398;5.466;2023-12-22T12:13:11;100198.44;;;11.73;100.00
9421;BME280;4749;51.398;5.466;2023-12-22T12:15:39;100207.22;;;11.74;100.00
9421;BME280;4749;51.398;5.466;2023-12-22T12:18:06;100201.97;;;11.72;100.00
9421;BME280;4749;51.398;5.466;2023-12-22T12:20:33;100197.63;;;11.70;100.00
9421;BME280;4749;51.398;5.466;2023-12-22T12:23:02;100205.50;;;11.68;100.00
9421;BME280;4749;51.398;5.466;2023-12-22T12:25:31;100216.06;;;11.67;100.00
9421;BME280;4749;51.398;5.466;2023-12-22T12:28:03;100197.63;;;11.70;100.00
9421;BME280;4749;51.398;5.466;2023-12-22T12:30:32;100162.53;;;11.69;100.00
9421;BME280;4749;51.398;5.466;2023-12-22T12:33:11;100195.84;;;11.72;100.00
9421;BME280;4749;51.398;5.466;2023-12-22T12:35:40;100178.31;;;11.68;100.00
9421;BME280;4749;51.398;5.466;2023-12-22T12:38:12;100192.38;;;11.67;100.00
9421;BME280;4749;51.398;5.466;2023-12-22T12:40:41;100195.91;;;11.66;100.00
9421;BME280;4749;51.398;5.466;2023-12-22T12:43:11;100197.63;;;11.67;100.00
9421;BME280;4749;51.398;5.466;2023-12-22T12:45:40;100200.25;;;11.68;100.00
9421;BME280;4749;51.398;5.466;2023-12-22T12:48:08;100195.88;;;11.69;100.00
9421;BME280;4749;51.398;5.466;2023-12-22T12:50:36;100192.34;;;11.68;100.00
9421;BME280;4749;51.398;5.466;2023-12-22T12:53:05;100196.69;;;11.72;100.00
9421;BME280;4749;51.398;5.466;2023-12-22T12:55:34;100188.84;;;11.69;100.00
9421;BME280;4749;51.398;5.466;2023-12-22T12:58:01;100179.22;;;11.65;100.00
9421;BME280;4749;51.398;5.466;2023-12-22T13:00:31;100191.56;;;11.63;100.00
9421;BME280;4749;51.398;5.466;2023-12-22T13:03:04;100201.22;;;11.60;100.00
9421;BME280;4749;51.398;5.466;2023-12-22T13:05:33;100191.59;;;11.59;100.00
9421;BME280;4749;51.398;5.466;2023-12-22T13:08:10;100196.84;;;11.62;100.00
9421;BME280;4749;51.398;5.466;2023-12-22T13:10:39;100193.31;;;11.60;100.00
9421;BME280;4749;51.398;5.466;2023-12-22T13:13:07;100188.16;;;11.53;100.00
9421;BME280;4749;51.398;5.466;2023-12-22T13:15:34;100185.53;;;11.50;100.00
9421;BME280;4749;51.398;5.466;2023-12-22T13:18:01;100191.75;;;11.46;100.00
9421;BME280;4749;51.398;5.466;2023-12-22T13:20:29;100190.88;;;11.46;100.00
9421;BME280;4749;51.398;5.466;2023-12-22T13:22:56;100196.19;;;11.41;100.00